Terminal Aerodrome Forecast
Issued by NWS Sioux Falls, SD

Home | Current Version | Previous Version | Text Only | Print | Product List | Glossary On
Versions: 1 2 3 4 5 6 7 8 9 10 11 12 13
000
FTUS43 KFSD 301122
TAFFSD
TAF
KFSD 301122Z 3012/3112 22004KT P6SM BKN200
     FM301500 24012KT P6SM BKN200
     FM301700 27014G19KT P6SM SCT200
     FM301930 29018G28KT P6SM SKC
     FM310000 31011KT P6SM SKC
     FM310300 33005KT P6SM SKC=

USA.gov is the U.S. government's official web portal to all federal, state and local government web resources and services.